Time;durP1;ratioP1;P1;durP2;ratioP2;P2;SDS_P1;SDS_P2;PMS_P1;PMS_P2;Temp;Humidity;BMP_temperature;BMP_pressure;BME280_temperature;BME280_humidity;BME280_pressure;Samples;Min_cycle;Max_cycle;Signal;HPM_P1;HPM_P2
2022/04/19 00:00:42;;;;;;;5.23;3.63;;;5.10;1.00;;;;;;5010868;28;20214;-82
2022/04/19 00:03:08;;;;;;;3.80;3.07;;;5.00;1.00;;;;;;5029191;28;20205;-82
2022/04/19 00:05:35;;;;;;;4.50;3.00;;;5.00;1.00;;;;;;5028294;28;20680;-82
2022/04/19 00:08:02;;;;;;;3.43;2.40;;;5.00;1.00;;;;;;5010918;28;20245;-82
2022/04/19 00:10:28;;;;;;;3.77;2.87;;;4.90;1.00;;;;;;5027143;28;20206;-82
2022/04/19 00:12:59;;;;;;;3.60;2.90;;;4.90;1.00;;;;;;5011547;28;20540;-82
2022/04/19 00:15:28;;;;;;;2.83;2.37;;;4.90;1.00;;;;;;5027872;28;20665;-82
2022/04/19 00:17:55;;;;;;;3.37;2.83;;;4.80;1.00;;;;;;5010970;28;20244;-82
2022/04/19 00:20:22;;;;;;;3.97;2.40;;;4.80;1.00;;;;;;5010453;28;20210;-82
2022/04/19 00:22:49;;;;;;;3.70;2.80;;;4.80;1.00;;;;;;5011339;28;20195;-81
2022/04/19 00:25:15;;;;;;;2.97;2.23;;;4.70;1.00;;;;;;5028031;28;21241;-81
2022/04/19 00:27:41;;;;;;;3.77;2.90;;;4.70;1.00;;;;;;5010621;28;20688;-81
2022/04/19 00:30:07;;;;;;;5.83;3.30;;;4.80;1.00;;;;;;5010577;28;20214;-82
2022/04/19 00:32:33;;;;;;;10.77;7.20;;;4.80;1.00;;;;;;5011153;28;20211;-81
2022/04/19 00:34:59;;;;;;;7.90;5.70;;;5.00;1.00;;;;;;5010586;28;20187;-81
2022/04/19 00:37:25;;;;;;;9.07;6.40;;;4.90;1.00;;;;;;5010310;28;20206;-83
2022/04/19 00:39:51;;;;;;;9.90;7.90;;;4.90;1.00;;;;;;5009825;28;20211;-81
2022/04/19 00:42:17;;;;;;;7.40;6.60;;;4.80;1.00;;;;;;5025915;28;20194;-82
2022/04/19 00:44:43;;;;;;;8.43;6.13;;;4.80;1.00;;;;;;5009553;28;20684;-81
2022/04/19 00:47:10;;;;;;;5.53;4.93;;;4.70;1.00;;;;;;5007774;28;20210;-82
2022/04/19 00:49:38;;;;;;;6.77;5.77;;;4.70;1.00;;;;;;5006930;28;20276;-82
2022/04/19 00:52:05;;;;;;;6.67;5.30;;;4.70;1.00;;;;;;5022913;28;20214;-80
2022/04/19 00:54:32;;;;;;;6.57;5.30;;;4.70;1.00;;;;;;5006721;28;20179;-80
2022/04/19 00:56:57;;;;;;;7.17;5.20;;;4.70;1.00;;;;;;5007721;28;20183;-82
2022/04/19 00:59:24;;;;;;;7.43;5.10;;;4.70;1.00;;;;;;5025118;28;20266;-81
2022/04/19 01:01:50;;;;;;;6.77;5.20;;;4.70;1.00;;;;;;5007544;28;20190;-81
2022/04/19 01:04:16;;;;;;;5.33;4.33;;;4.60;1.00;;;;;;5024123;28;20222;-81
2022/04/19 01:06:42;;;;;;;6.60;4.10;;;4.60;1.00;;;;;;5024629;28;20481;-81
2022/04/19 01:09:08;;;;;;;5.30;3.87;;;4.60;1.00;;;;;;5006866;28;20452;-80
2022/04/19 01:14:19;;;;;;;4.73;4.20;;;4.60;1.00;;;;;;5022464;28;20889;-80
2022/04/19 01:16:45;;;;;;;5.97;4.00;;;4.50;1.00;;;;;;5024178;28;21028;-81
2022/04/19 01:19:16;;;;;;;5.30;4.03;;;4.60;1.00;;;;;;5006241;28;20183;-80
2022/04/19 01:21:49;;;;;;;4.00;3.07;;;4.50;1.00;;;;;;5008977;28;20223;-82
2022/04/19 01:24:16;;;;;;;5.00;3.50;;;4.40;1.00;;;;;;5008981;28;20191;-81
2022/04/19 01:26:42;;;;;;;3.67;3.23;;;4.40;1.00;;;;;;5009424;28;20275;-81
2022/04/19 01:29:09;;;;;;;3.93;3.13;;;4.40;1.00;;;;;;5025682;28;20187;-80
2022/04/19 01:31:37;;;;;;;3.83;3.00;;;4.50;1.00;;;;;;5009329;28;20578;-80
2022/04/19 01:34:02;;;;;;;4.07;3.10;;;4.50;1.00;;;;;;5027647;28;20650;-80
2022/04/19 01:36:29;;;;;;;3.37;2.83;;;4.40;1.00;;;;;;5009066;28;20206;-81
2022/04/19 01:38:54;;;;;;;3.43;2.73;;;4.40;1.00;;;;;;5027572;28;20225;-81
2022/04/19 01:41:20;;;;;;;2.80;2.37;;;4.30;1.00;;;;;;5009148;28;20786;-82
2022/04/19 01:43:45;;;;;;;3.17;2.50;;;4.30;1.00;;;;;;5010412;28;20194;-82
2022/04/19 01:46:11;;;;;;;2.47;2.27;;;4.20;1.00;;;;;;5027692;28;20229;-82
2022/04/19 01:48:37;;;;;;;4.23;3.10;;;4.20;1.00;;;;;;5009855;28;20186;-82
2022/04/19 01:51:03;;;;;;;3.50;2.47;;;4.10;1.00;;;;;;5009445;28;20214;-81
2022/04/19 01:53:29;;;;;;;4.00;2.53;;;4.10;1.00;;;;;;5009102;28;20186;-82
2022/04/19 01:55:55;;;;;;;3.80;2.97;;;4.00;1.00;;;;;;5008561;28;20186;-83
2022/04/19 01:58:20;;;;;;;3.97;2.90;;;4.00;1.00;;;;;;5008573;28;20214;-81
2022/04/19 02:00:46;;;;;;;3.33;2.60;;;4.00;1.00;;;;;;5008907;28;20246;-82
2022/04/19 02:03:12;;;;;;;3.30;2.90;;;4.00;1.00;;;;;;5009281;28;20191;-82
2022/04/19 02:05:37;;;;;;;4.33;2.90;;;4.00;1.00;;;;;;5026593;28;20194;-82
2022/04/19 02:08:03;;;;;;;3.47;2.50;;;3.90;1.00;;;;;;5008565;28;20195;-82
2022/04/19 02:10:29;;;;;;;3.80;3.00;;;4.00;1.00;;;;;;5007813;28;20210;-82
2022/04/19 02:12:54;;;;;;;3.70;2.90;;;3.90;1.00;;;;;;5009986;28;20187;-82
2022/04/19 02:15:20;;;;;;;3.03;2.47;;;3.90;1.00;;;;;;5009533;28;20187;-82
2022/04/19 02:17:50;;;;;;;3.10;2.50;;;3.80;1.00;;;;;;5009297;28;20183;-82
2022/04/19 02:20:17;;;;;;;2.73;2.20;;;3.70;1.00;;;;;;5009396;28;20210;-83
2022/04/19 02:22:43;;;;;;;3.40;2.63;;;3.70;1.00;;;;;;5025572;28;20194;-82
2022/04/19 02:25:11;;;;;;;2.77;2.20;;;3.60;2.30;;;;;;5026512;28;20193;-81
2022/04/19 02:27:39;;;;;;;3.17;2.63;;;3.60;7.80;;;;;;5024920;28;20190;-82
2022/04/19 02:30:06;;;;;;;4.40;2.93;;;3.60;3.10;;;;;;5025265;28;20206;-81
2022/04/19 02:32:32;;;;;;;3.10;2.57;;;3.50;13.00;;;;;;5009341;28;20561;-81
2022/04/19 02:34:58;;;;;;;2.87;2.50;;;3.50;12.40;;;;;;5009521;28;20198;-83
2022/04/19 02:37:23;;;;;;;3.40;2.97;;;3.50;16.40;;;;;;5027075;28;20203;-83
2022/04/19 02:39:50;;;;;;;3.17;2.50;;;3.50;15.00;;;;;;5026637;28;20205;-81
2022/04/19 02:42:16;;;;;;;3.10;2.40;;;3.50;14.40;;;;;;5009213;28;20199;-81
2022/04/19 02:44:42;;;;;;;3.60;2.30;;;3.50;10.90;;;;;;5008448;28;20290;-82
2022/04/19 02:47:08;;;;;;;3.03;2.43;;;3.50;8.90;;;;;;5009228;28;20301;-82
2022/04/19 02:49:34;;;;;;;3.43;2.37;;;3.50;13.80;;;;;;5008667;28;20744;-81
2022/04/19 02:52:00;;;;;;;2.97;2.47;;;3.50;1.60;;;;;;5004553;28;20247;-82
2022/04/19 02:54:26;;;;;;;3.83;2.33;;;3.50;1.00;;;;;;5005300;28;20508;-81
2022/04/19 02:56:52;;;;;;;5.77;2.40;;;3.50;1.00;;;;;;5005549;28;20477;-81
2022/04/19 02:59:17;;;;;;;3.23;2.70;;;3.40;1.00;;;;;;5005693;28;20187;-82
2022/04/19 03:01:43;;;;;;;3.10;2.33;;;3.30;10.10;;;;;;5006332;28;20199;-82
2022/04/19 03:04:09;;;;;;;3.40;2.60;;;3.30;17.70;;;;;;5006295;28;20220;-82
2022/04/19 03:06:34;;;;;;;3.53;2.60;;;3.30;20.30;;;;;;5005995;28;20186;-81
2022/04/19 03:09:00;;;;;;;3.20;2.43;;;3.20;24.30;;;;;;5024296;28;20194;-82
2022/04/19 03:11:26;;;;;;;3.70;2.40;;;3.20;27.80;;;;;;5023260;28;20520;-82
2022/04/19 03:13:52;;;;;;;3.73;2.47;;;3.20;26.70;;;;;;5006373;28;20214;-81
2022/04/19 03:16:17;;;;;;;3.07;2.63;;;3.20;23.40;;;;;;5006075;28;20419;-81
2022/04/19 03:18:43;;;;;;;3.27;2.70;;;3.20;25.00;;;;;;5023834;28;20513;-83
2022/04/19 03:21:13;;;;;;;2.97;2.47;;;3.10;25.10;;;;;;5006052;28;20202;-82
2022/04/19 03:29:08;;;;;;;2.33;2.13;;;3.00;34.80;;;;;;5023908;28;20213;-82
2022/04/19 03:31:34;;;;;;;3.73;2.50;;;3.10;31.90;;;;;;5024104;28;20214;-82
2022/04/19 03:34:05;;;;;;;2.43;2.00;;;3.00;32.00;;;;;;5006742;28;20183;-83
2022/04/19 03:36:31;;;;;;;3.73;2.17;;;2.90;38.60;;;;;;5005340;28;20199;-82
2022/04/19 03:38:57;;;;;;;2.30;1.93;;;3.00;36.00;;;;;;5005390;28;20182;-81
2022/04/19 03:41:23;;;;;;;2.27;1.63;;;2.90;38.80;;;;;;5008251;28;20696;-82
2022/04/19 03:43:51;;;;;;;2.30;2.10;;;2.90;41.70;;;;;;5005665;28;20199;-82
2022/04/19 03:46:17;;;;;;;2.63;2.23;;;2.80;44.10;;;;;;5021725;28;20559;-82
2022/04/19 03:48:43;;;;;;;3.90;1.97;;;2.90;72.60;;;;;;5008329;28;20723;-81
2022/04/19 03:51:08;;;;;;;3.43;1.90;;;2.80;84.70;;;;;;5005137;28;20218;-81
2022/04/19 03:53:34;;;;;;;2.80;2.23;;;2.90;94.50;;;;;;5023605;28;20633;-81
2022/04/19 03:55:59;;;;;;;2.43;1.97;;;2.90;80.70;;;;;;5007286;28;20252;-81
2022/04/19 03:58:26;;;;;;;2.40;2.20;;;2.80;71.90;;;;;;5012306;28;20194;-81
2022/04/19 04:00:53;;;;;;;2.37;2.10;;;2.80;73.50;;;;;;5029677;28;20800;-81
2022/04/19 04:03:19;;;;;;;1.83;1.67;;;2.70;72.30;;;;;;5011741;28;20297;-81
2022/04/19 04:05:44;;;;;;;4.00;2.10;;;2.70;99.90;;;;;;5012660;28;20631;-82
2022/04/19 04:08:10;;;;;;;2.40;2.00;;;2.70;99.90;;;;;;5012286;28;20187;-81
2022/04/19 04:10:35;;;;;;;3.77;2.50;;;2.70;99.90;;;;;;5012596;28;20245;-82
2022/04/19 04:13:01;;;;;;;4.00;2.37;;;2.70;99.90;;;;;;5012839;28;20631;-82
2022/04/19 04:15:27;;;;;;;2.90;2.00;;;2.70;99.90;;;;;;5012825;28;20206;-81
2022/04/19 04:17:52;;;;;;;4.10;2.80;;;2.80;99.90;;;;;;5012528;28;20400;-81
2022/04/19 04:20:18;;;;;;;3.40;2.30;;;2.70;99.90;;;;;;5029696;28;20211;-81
2022/04/19 04:22:43;;;;;;;2.07;1.83;;;2.70;99.90;;;;;;5012006;28;20179;-81
2022/04/19 04:25:09;;;;;;;4.30;3.20;;;2.60;99.90;;;;;;5012957;28;20209;-81
2022/04/19 04:27:35;;;;;;;2.70;2.50;;;2.60;99.90;;;;;;5011793;28;20215;-81
2022/04/19 04:30:00;;;;;;;4.13;2.77;;;2.60;99.90;;;;;;5011653;28;20211;-81
2022/04/19 04:32:26;;;;;;;3.50;2.67;;;2.60;99.90;;;;;;5011428;28;20186;-81
2022/04/19 04:34:52;;;;;;;7.73;3.87;;;2.60;99.90;;;;;;5010849;28;20218;-81
2022/04/19 04:37:17;;;;;;;6.30;4.10;;;2.60;49.20;;;;;;5028755;28;20203;-82
2022/04/19 04:39:43;;;;;;;6.23;3.13;;;2.50;54.80;;;;;;5028965;28;20206;-81
2022/04/19 04:42:09;;;;;;;6.53;3.70;;;2.50;76.80;;;;;;5011579;28;21465;-83
2022/04/19 04:44:34;;;;;;;6.77;3.73;;;2.50;84.00;;;;;;5011473;28;20183;-81
2022/04/19 04:49:44;;;;;;;10.87;4.80;;;2.50;95.90;;;;;;5029162;28;20300;-81
2022/04/19 04:52:14;;;;;;;7.60;4.47;;;2.60;72.00;;;;;;5029571;28;20655;-82
2022/04/19 04:54:41;;;;;;;7.23;4.20;;;2.60;61.80;;;;;;5011956;28;20190;-82
2022/04/19 04:57:08;;;;;;;6.73;4.00;;;2.60;59.50;;;;;;5028611;28;20217;-82
2022/04/19 04:59:35;;;;;;;7.60;4.20;;;2.70;47.00;;;;;;5029193;28;20867;-82
2022/04/19 05:02:01;;;;;;;6.23;3.93;;;2.70;48.90;;;;;;5011976;28;20193;-82
2022/04/19 05:04:27;;;;;;;7.17;4.00;;;2.80;45.00;;;;;;5011730;28;20703;-82
2022/04/19 05:06:53;;;;;;;5.90;3.60;;;3.00;32.70;;;;;;5010113;28;20190;-82
2022/04/19 05:09:19;;;;;;;5.53;3.27;;;3.10;46.40;;;;;;5010053;28;20571;-81
2022/04/19 05:11:46;;;;;;;5.80;3.50;;;3.20;3.30;;;;;;5011017;28;20222;-83
2022/04/19 05:14:13;;;;;;;4.17;2.90;;;3.30;1.00;;;;;;5011476;28;20620;-81
2022/04/19 05:16:39;;;;;;;4.87;3.33;;;3.40;1.00;;;;;;5028797;28;20657;-82
2022/04/19 05:19:05;;;;;;;3.63;2.67;;;3.50;1.00;;;;;;5011678;28;20697;-81
2022/04/19 05:21:31;;;;;;;4.63;2.67;;;3.50;1.00;;;;;;5010956;28;20241;-82
2022/04/19 05:23:56;;;;;;;4.73;2.63;;;3.60;1.00;;;;;;5010498;28;20186;-81
2022/04/19 05:26:24;;;;;;;3.47;2.33;;;3.70;1.00;;;;;;5010311;28;20187;-82
2022/04/19 05:28:50;;;;;;;3.77;2.70;;;4.00;1.00;;;;;;5027151;28;20179;-81
2022/04/19 05:31:16;;;;;;;4.17;2.47;;;4.30;1.00;;;;;;5010253;28;20233;-81
2022/04/19 05:33:41;;;;;;;3.20;2.50;;;4.50;1.00;;;;;;5009183;28;20221;-81
2022/04/19 05:36:07;;;;;;;4.67;2.87;;;4.90;1.00;;;;;;5008945;28;20199;-81
2022/04/19 05:38:33;;;;;;;3.17;2.73;;;5.50;1.00;;;;;;5027108;28;20183;-82
2022/04/19 05:40:58;;;;;;;3.00;2.43;;;6.00;1.00;;;;;;5025934;28;20231;-82
2022/04/19 05:43:25;;;;;;;2.50;2.30;;;6.60;99.90;;;;;;5006126;28;20183;-81
2022/04/19 05:45:50;;;;;;;3.23;2.60;;;7.20;99.90;;;;;;5006905;28;20252;-82
2022/04/19 05:48:16;;;;;;;3.33;2.57;;;7.90;99.90;;;;;;5006121;28;20817;-82
2022/04/19 05:50:41;;;;;;;2.63;2.23;;;8.50;99.90;;;;;;5023388;28;20264;-82
2022/04/19 05:53:07;;;;;;;4.20;2.80;;;9.10;99.90;;;;;;5022593;28;20236;-83
2022/04/19 05:55:33;;;;;;;2.80;2.20;;;9.90;99.90;;;;;;5022871;28;20191;-82
2022/04/19 05:57:59;;;;;;;4.53;1.85;;;10.90;99.90;;;;;;5025225;28;20187;-82
2022/04/19 06:00:25;;;;;;;1.88;1.70;;;11.60;99.90;;;;;;5008379;28;20213;-82
2022/04/19 06:05:35;;;;;;;1.90;1.77;;;12.70;99.90;;;;;;5026775;28;20244;-83
2022/04/19 06:08:01;;;;;;;2.65;1.70;;;13.10;99.90;;;;;;5008124;28;20657;-83
2022/04/19 06:10:27;;;;;;;2.88;2.08;;;13.30;99.90;;;;;;5026486;28;20261;-83
2022/04/19 06:12:52;;;;;;;3.97;1.80;;;13.10;96.10;;;;;;5009084;28;20189;-83
2022/04/19 06:15:18;;;;;;;1.80;1.67;;;13.30;93.80;;;;;;5026526;28;20194;-83
2022/04/19 06:17:43;;;;;;;1.63;1.52;;;13.50;94.70;;;;;;5025336;28;20224;-82
2022/04/19 06:20:10;;;;;;;1.75;1.48;;;13.70;94.90;;;;;;5007824;28;20209;-84
2022/04/19 06:22:35;;;;;;;1.60;1.50;;;13.90;94.90;;;;;;5026621;28;20600;-83
2022/04/19 06:25:01;;;;;;;1.60;1.45;;;14.00;93.90;;;;;;5008283;28;20187;-82
2022/04/19 06:27:27;;;;;;;1.98;1.40;;;14.30;93.20;;;;;;5007524;28;20201;-82
2022/04/19 06:29:53;;;;;;;2.05;1.42;;;14.30;91.10;;;;;;5008195;28;20417;-82
2022/04/19 06:32:19;;;;;;;1.92;1.67;;;14.20;91.10;;;;;;5007921;28;20218;-82
2022/04/19 06:34:45;;;;;;;1.42;1.33;;;14.10;91.10;;;;;;5024140;28;20178;-82
2022/04/19 06:37:11;;;;;;;1.70;1.50;;;13.70;90.90;;;;;;5007284;28;20576;-81
2022/04/19 06:39:37;;;;;;;1.67;1.20;;;13.00;91.00;;;;;;5025566;28;20203;-82
2022/04/19 06:42:02;;;;;;;1.75;1.50;;;12.20;92.40;;;;;;5023567;28;20182;-82
2022/04/19 06:44:28;;;;;;;2.67;1.50;;;11.60;93.80;;;;;;5023230;28;21027;-80
2022/04/19 06:46:54;;;;;;;1.67;1.55;;;11.30;95.00;;;;;;5024654;28;20183;-79
2022/04/19 06:49:19;;;;;;;2.38;1.55;;;11.20;95.70;;;;;;5008472;28;20183;-79
2022/04/19 06:51:45;;;;;;;1.40;1.30;;;10.90;95.70;;;;;;5024463;28;20685;-82
2022/04/19 06:54:12;;;;;;;2.97;1.50;;;10.70;96.50;;;;;;5008622;28;20182;-82
2022/04/19 06:56:38;;;;;;;2.60;1.60;;;10.60;96.30;;;;;;5006770;28;20193;-82
2022/04/19 06:59:04;;;;;;;1.40;1.30;;;10.50;97.60;;;;;;5025697;28;20202;-81
2022/04/19 07:01:30;;;;;;;1.50;1.40;;;10.30;96.20;;;;;;5007293;28;20622;-81
2022/04/19 07:03:55;;;;;;;2.27;0.77;;;10.30;96.80;;;;;;5007160;28;20194;-82
2022/04/19 07:06:21;;;;;;;1.70;1.03;;;10.20;91.20;;;;;;5024277;28;20195;-80
2022/04/19 07:08:47;;;;;;;1.03;0.90;;;10.00;89.80;;;;;;5025391;28;20182;-82
2022/04/19 07:11:15;;;;;;;1.80;1.67;;;10.10;91.50;;;;;;5007481;28;20221;-84
2022/04/19 07:13:44;;;;;;;1.70;1.43;;;10.20;96.00;;;;;;5008075;28;20207;-81
2022/04/19 07:16:09;;;;;;;1.73;1.50;;;10.30;97.20;;;;;;5024739;28;20226;-80
2022/04/19 07:18:35;;;;;;;1.20;1.10;;;10.50;97.60;;;;;;5024521;28;20183;-82
2022/04/19 07:26:40;;;;;;;1.30;1.20;;;10.80;91.40;;;;;;5023918;28;20704;-83
2022/04/19 07:29:07;;;;;;;0.90;0.90;;;11.00;93.50;;;;;;5025446;28;20175;-81
2022/04/19 07:31:34;;;;;;;0.80;0.80;;;10.80;85.70;;;;;;5026827;28;21242;-82
2022/04/19 07:34:00;;;;;;;1.67;0.90;;;10.70;85.70;;;;;;5011427;28;20370;-83
2022/04/19 07:36:26;;;;;;;1.00;0.90;;;11.00;86.20;;;;;;5012833;28;20193;-80
2022/04/19 07:38:52;;;;;;;1.30;1.13;;;11.30;85.40;;;;;;4994756;28;20695;-81
2022/04/19 07:41:18;;;;;;;1.47;1.07;;;11.30;81.30;;;;;;5029098;28;20206;-80
2022/04/19 07:43:47;;;;;;;1.03;0.90;;;11.00;84.40;;;;;;5012398;28;20278;-81
2022/04/19 07:46:17;;;;;;;0.70;0.70;;;11.00;84.30;;;;;;5010816;28;21309;-79
2022/04/19 07:48:47;;;;;;;0.97;0.97;;;10.90;78.50;;;;;;5027824;28;20836;-83
2022/04/19 07:51:14;;;;;;;1.13;0.80;;;11.00;80.50;;;;;;5029359;28;20221;-80
2022/04/19 07:53:40;;;;;;;1.13;0.70;;;11.20;81.10;;;;;;5027764;28;20191;-81
2022/04/19 07:56:08;;;;;;;0.90;0.90;;;11.40;76.50;;;;;;5027111;28;20201;-81
2022/04/19 07:58:35;;;;;;;0.80;0.70;;;11.40;74.60;;;;;;5010340;28;20187;-81
2022/04/19 08:01:01;;;;;;;1.03;0.83;;;11.50;78.40;;;;;;5027182;28;20215;-80
2022/04/19 08:03:27;;;;;;;1.03;0.80;;;11.60;77.80;;;;;;5010110;28;20221;-80
2022/04/19 08:05:53;;;;;;;1.50;1.00;;;11.70;73.00;;;;;;5010360;28;20229;-80
2022/04/19 08:08:21;;;;;;;1.20;0.90;;;11.50;74.10;;;;;;5010781;28;20672;-81
2022/04/19 08:10:49;;;;;;;0.70;0.53;;;11.70;74.90;;;;;;5010452;28;20696;-81
2022/04/19 08:13:15;;;;;;;0.90;0.90;;;11.70;75.40;;;;;;5027875;28;20530;-80
2022/04/19 08:15:41;;;;;;;1.47;1.00;;;11.80;73.50;;;;;;5026815;28;20187;-80
2022/04/19 08:18:11;;;;;;;1.10;1.00;;;11.60;73.00;;;;;;5027480;28;20187;-80
2022/04/19 08:20:37;;;;;;;1.17;1.07;;;11.70;75.30;;;;;;5010015;28;20276;-81
2022/04/19 08:23:03;;;;;;;2.40;1.37;;;11.30;80.80;;;;;;5010084;28;20337;-80
2022/04/19 08:25:29;;;;;;;1.73;1.30;;;11.00;83.00;;;;;;5028291;28;20178;-80
2022/04/19 08:27:55;;;;;;;2.87;1.30;;;11.10;82.20;;;;;;5010190;28;20193;-80
2022/04/19 08:30:21;;;;;;;1.43;1.20;;;11.30;82.30;;;;;;5008650;28;20292;-80
2022/04/19 08:32:47;;;;;;;2.23;1.20;;;11.10;82.20;;;;;;5008190;28;20270;-81
2022/04/19 08:35:12;;;;;;;1.43;1.33;;;11.20;81.90;;;;;;5008416;28;20883;-80
2022/04/19 08:37:38;;;;;;;1.40;1.30;;;11.00;80.50;;;;;;5007959;28;20191;-81
2022/04/19 08:40:06;;;;;;;1.30;1.10;;;11.20;81.10;;;;;;5008567;28;21150;-81
2022/04/19 08:42:33;;;;;;;1.67;1.27;;;11.50;80.20;;;;;;5022983;28;20187;-80
2022/04/19 08:45:03;;;;;;;1.33;1.20;;;11.80;79.70;;;;;;5025479;28;20224;-80
2022/04/19 08:47:34;;;;;;;1.70;1.43;;;11.90;78.00;;;;;;5008466;28;20217;-80
2022/04/19 08:50:05;;;;;;;2.00;1.30;;;11.70;79.70;;;;;;5009877;28;20621;-80
2022/04/19 08:52:32;;;;;;;1.40;1.30;;;11.50;78.00;;;;;;5024462;28;20211;-79
2022/04/19 08:57:42;;;;;;;2.30;1.70;;;11.50;78.70;;;;;;5027370;28;20209;-79
2022/04/19 09:00:09;;;;;;;2.63;1.20;;;11.40;80.40;;;;;;5009999;28;20206;-81
2022/04/19 09:02:37;;;;;;;1.97;1.00;;;11.70;76.50;;;;;;5027906;28;20182;-78
2022/04/19 09:05:23;;;;;;;1.20;1.10;;;11.70;72.40;;;;;;5027521;28;20236;-79
2022/04/19 09:07:51;;;;;;;1.33;1.10;;;11.70;74.90;;;;;;5026727;28;21146;-79
2022/04/19 09:10:32;;;;;;;2.40;1.50;;;11.80;75.10;;;;;;5009272;28;20285;-79
2022/04/19 09:13:08;;;;;;;3.17;1.50;;;11.90;74.60;;;;;;5008831;28;20183;-79
2022/04/19 09:15:42;;;;;;;1.77;1.40;;;11.80;74.70;;;;;;5009273;28;20653;-81
2022/04/19 09:18:29;;;;;;;1.30;1.20;;;11.90;76.80;;;;;;5009608;28;20561;-79
2022/04/19 09:20:57;;;;;;;2.53;1.60;;;12.00;75.50;;;;;;5006376;28;20253;-81
2022/04/19 09:23:25;;;;;;;1.92;1.42;;;12.10;77.50;;;;;;5006186;28;20218;-80
2022/04/19 09:25:54;;;;;;;4.13;1.83;;;12.30;77.30;;;;;;5024744;28;20182;-82
2022/04/19 09:28:21;;;;;;;2.50;1.67;;;12.10;76.30;;;;;;5026069;28;20182;-83
2022/04/19 09:30:49;;;;;;;2.30;1.70;;;11.90;76.70;;;;;;5006359;28;20222;-79
2022/04/19 09:33:17;;;;;;;2.57;1.53;;;11.90;76.20;;;;;;5024114;28;20379;-81
2022/04/19 09:35:45;;;;;;;2.17;1.30;;;12.30;76.50;;;;;;5006692;28;20206;-80
2022/04/19 09:38:12;;;;;;;1.70;1.40;;;12.30;77.70;;;;;;5023237;28;20264;-78
2022/04/19 09:40:43;;;;;;;1.67;1.30;;;12.20;78.10;;;;;;5006642;28;20207;-80
2022/04/19 09:43:13;;;;;;;1.77;1.40;;;12.30;78.20;;;;;;5024458;28;20217;-80
2022/04/19 09:45:59;;;;;;;1.40;1.27;;;12.00;78.50;;;;;;5005550;28;20233;-79
2022/04/19 09:48:35;;;;;;;1.30;1.20;;;12.30;78.20;;;;;;5005311;28;20194;-79
2022/04/19 09:51:09;;;;;;;2.77;1.60;;;12.30;76.20;;;;;;5022077;28;20353;-79
2022/04/19 09:53:43;;;;;;;2.07;1.57;;;12.20;74.80;;;;;;5023137;28;20547;-79
2022/04/19 09:56:14;;;;;;;1.45;1.23;;;12.30;75.20;;;;;;5007913;28;20225;-79
2022/04/19 09:58:44;;;;;;;2.00;1.33;;;12.50;75.50;;;;;;5008480;28;20183;-79
2022/04/19 10:08:10;;;;;;;1.80;1.42;;;12.40;74.20;;;;;;5005036;28;20297;-80
2022/04/19 10:09:35;;;;;;;2.30;1.83;;;12.60;73.80;;;;;;5025468;28;20349;-79
2022/04/19 10:12:10;;;;;;;2.25;1.60;;;12.60;74.40;;;;;;5008990;28;20762;-79
2022/04/19 10:14:36;;;;;;;2.60;1.40;;;12.90;76.30;;;;;;5008448;28;20247;-79
2022/04/19 10:17:03;;;;;;;2.05;1.60;;;13.20;75.60;;;;;;5024778;28;20274;-80
2022/04/19 10:19:30;;;;;;;2.67;1.50;;;13.10;71.60;;;;;;5003567;28;20194;-79
2022/04/19 10:21:58;;;;;;;2.42;1.27;;;13.30;74.20;;;;;;5021366;28;20217;-79
2022/04/19 10:24:24;;;;;;;2.20;1.38;;;13.40;71.70;;;;;;5003342;28;20187;-79
2022/04/19 10:26:53;;;;;;;1.25;1.10;;;13.40;71.20;;;;;;5021425;28;20195;-80
2022/04/19 10:29:20;;;;;;;2.42;1.35;;;13.50;71.00;;;;;;5022632;28;20252;-80
2022/04/19 10:32:02;;;;;;;1.52;1.20;;;13.60;70.90;;;;;;5004466;28;20210;-79
2022/04/19 10:34:29;;;;;;;2.60;1.55;;;13.60;70.90;;;;;;5023117;28;20187;-80
2022/04/19 10:37:01;;;;;;;1.35;1.25;;;13.60;71.70;;;;;;5005310;28;20202;-79
2022/04/19 10:39:32;;;;;;;1.75;1.30;;;13.60;70.60;;;;;;5025832;28;20186;-78
2022/04/19 10:42:03;;;;;;;1.30;1.00;;;13.50;70.90;;;;;;5010933;28;20691;-78
2022/04/19 10:44:45;;;;;;;1.10;1.05;;;13.40;70.00;;;;;;5007794;28;20278;-78
2022/04/19 10:47:13;;;;;;;3.10;1.20;;;13.50;72.20;;;;;;5007407;28;20179;-78
2022/04/19 10:49:57;;;;;;;1.20;1.00;;;13.70;69.20;;;;;;5025154;28;20213;-80
2022/04/19 10:52:42;;;;;;;2.92;1.10;;;13.50;70.10;;;;;;5025650;28;20207;-80
2022/04/19 10:55:11;;;;;;;1.90;1.38;;;13.80;67.40;;;;;;5006265;28;20245;-78
2022/04/19 11:00:41;;;;;;;2.13;1.20;;;13.90;64.80;;;;;;5024622;28;20621;-78
2022/04/19 11:03:08;;;;;;;1.10;0.93;;;13.90;63.10;;;;;;5024913;28;20182;-82
2022/04/19 11:05:46;;;;;;;1.15;0.95;;;13.90;64.60;;;;;;5005617;28;20187;-81
2022/04/19 11:08:29;;;;;;;1.40;1.00;;;14.00;65.10;;;;;;5004103;28;20277;-77
2022/04/19 11:10:58;;;;;;;1.60;1.13;;;13.90;64.10;;;;;;5004273;28;20357;-80
2022/04/19 11:13:31;;;;;;;1.00;0.90;;;13.90;65.70;;;;;;5003653;28;20707;-79
2022/04/19 11:16:13;;;;;;;1.25;1.00;;;13.90;65.60;;;;;;5004094;28;20191;-78
2022/04/19 11:18:41;;;;;;;2.55;0.90;;;13.90;63.20;;;;;;5004063;28;20627;-78
2022/04/19 11:21:11;;;;;;;0.95;0.75;;;13.90;60.30;;;;;;5003223;28;20238;-82
2022/04/19 11:23:46;;;;;;;0.77;0.70;;;13.90;62.40;;;;;;5003556;28;20553;-82
2022/04/19 11:26:30;;;;;;;1.00;0.88;;;14.00;60.20;;;;;;5003874;28;20183;-80
2022/04/19 11:29:14;;;;;;;0.95;0.75;;;14.20;60.30;;;;;;5005055;28;20347;-82
2022/04/19 11:31:43;;;;;;;1.15;0.88;;;14.30;59.20;;;;;;5023227;28;20234;-80
2022/04/19 11:34:16;;;;;;;1.75;0.93;;;14.30;58.80;;;;;;5002245;28;20186;-82
2022/04/19 11:36:43;;;;;;;1.45;0.80;;;14.60;60.60;;;;;;5003137;28;20198;-81
2022/04/19 11:46:43;;;;;;;1.15;0.90;;;14.20;57.50;;;;;;5026035;28;20641;-79
2022/04/19 11:47:53;;;;;;;2.60;0.80;;;14.20;54.60;;;;;;5020881;28;20264;-83
2022/04/19 11:50:30;;;;;;;2.97;1.05;;;14.10;56.90;;;;;;5003962;28;20264;-82
2022/04/19 11:53:00;;;;;;;3.35;1.27;;;14.20;56.40;;;;;;5021702;28;20178;-84
2022/04/19 11:55:27;;;;;;;0.88;0.70;;;14.30;56.90;;;;;;5004028;28;20190;-81
2022/04/19 11:58:06;;;;;;;1.00;0.90;;;14.50;54.90;;;;;;5003715;28;21073;-79
2022/04/19 12:00:32;;;;;;;1.20;0.93;;;14.50;56.90;;;;;;5004138;28;20313;-78
2022/04/19 12:03:02;;;;;;;1.77;0.95;;;14.80;57.10;;;;;;5021455;28;20333;-81
2022/04/19 12:05:30;;;;;;;1.67;1.10;;;14.90;57.60;;;;;;5004270;28;20191;-82
2022/04/19 12:07:56;;;;;;;0.85;0.85;;;14.60;56.20;;;;;;5002827;28;20397;-78
2022/04/19 12:10:23;;;;;;;1.30;0.80;;;14.50;55.70;;;;;;5003807;28;20604;-81
2022/04/19 12:12:52;;;;;;;4.10;0.98;;;14.40;57.00;;;;;;5004316;28;20248;-81
2022/04/19 12:15:38;;;;;;;1.10;1.00;;;14.30;56.90;;;;;;5003862;28;20187;-80
2022/04/19 12:18:04;;;;;;;1.02;0.90;;;14.70;57.00;;;;;;5022014;28;20190;-81
2022/04/19 12:20:43;;;;;;;0.90;0.80;;;14.50;56.50;;;;;;5011340;28;20249;-77
2022/04/19 12:23:19;;;;;;;1.77;0.90;;;14.80;57.50;;;;;;5030866;28;20182;-81
2022/04/19 12:26:07;;;;;;;0.82;0.70;;;15.00;56.90;;;;;;5012704;28;20246;-79
2022/04/19 12:28:48;;;;;;;1.27;0.80;;;14.60;54.90;;;;;;5015079;28;20225;-81
2022/04/19 12:31:38;;;;;;;1.27;0.93;;;14.50;54.10;;;;;;5035584;28;20212;-80
2022/04/19 12:34:04;;;;;;;1.17;0.93;;;14.60;54.90;;;;;;5015179;28;20258;-83
2022/04/19 12:36:50;;;;;;;0.80;0.80;;;14.50;54.40;;;;;;5015562;28;20202;-83
2022/04/19 12:39:21;;;;;;;0.80;0.65;;;14.40;55.80;;;;;;5017971;28;20274;-80
2022/04/19 12:41:48;;;;;;;1.13;0.70;;;14.70;55.80;;;;;;5031242;28;20434;-82
2022/04/19 12:44:19;;;;;;;1.05;0.90;;;15.00;54.10;;;;;;5016724;28;20215;-81
2022/04/19 12:46:49;;;;;;;1.00;0.80;;;15.00;54.40;;;;;;5015397;28;20457;-84
2022/04/19 12:49:31;;;;;;;1.45;0.70;;;14.80;52.80;;;;;;5027760;28;20210;-82
2022/04/19 12:52:08;;;;;;;0.70;0.70;;;14.70;53.70;;;;;;5029033;28;20273;-82
2022/04/19 12:54:36;;;;;;;0.85;0.70;;;14.80;52.90;;;;;;5010228;28;20186;-83
2022/04/19 12:57:04;;;;;;;0.82;0.70;;;14.60;52.60;;;;;;5012031;28;20209;-80
2022/04/19 12:59:31;;;;;;;0.93;0.77;;;14.50;53.70;;;;;;5010102;28;20202;-80
2022/04/19 13:01:57;;;;;;;0.88;0.70;;;14.60;52.40;;;;;;5027242;28;20608;-80
2022/04/19 13:04:23;;;;;;;1.20;0.77;;;14.70;53.30;;;;;;5027431;28;20729;-81
2022/04/19 13:12:26;;;;;;;1.85;0.60;;;14.80;54.00;;;;;;5026814;28;20213;-82
2022/04/19 13:14:57;;;;;;;0.60;0.60;;;14.80;54.60;;;;;;5028290;28;20194;-79
2022/04/19 13:17:24;;;;;;;1.48;0.65;;;14.80;51.40;;;;;;5009612;28;20179;-81
2022/04/19 13:19:50;;;;;;;4.80;0.80;;;14.90;53.30;;;;;;5009413;28;20206;-81
2022/04/19 13:22:16;;;;;;;1.63;1.00;;;15.00;53.70;;;;;;5009762;28;20481;-80
2022/04/19 13:24:42;;;;;;;1.23;0.70;;;14.80;53.20;;;;;;5008666;28;20247;-80
2022/04/19 13:27:09;;;;;;;0.73;0.70;;;14.70;51.10;;;;;;5008477;28;20179;-81
2022/04/19 13:29:35;;;;;;;1.13;0.70;;;14.70;52.00;;;;;;5008122;28;20583;-81
2022/04/19 13:32:01;;;;;;;1.73;0.80;;;14.80;52.20;;;;;;5008744;28;20576;-80
2022/04/19 13:34:27;;;;;;;1.20;1.10;;;14.90;51.90;;;;;;5008370;28;20229;-81
2022/04/19 13:36:56;;;;;;;1.95;0.60;;;14.90;51.90;;;;;;5026508;28;20198;-78
2022/04/19 13:39:22;;;;;;;1.25;0.73;;;14.90;52.10;;;;;;5009083;28;20210;-81